Share

Vidalia, GA

11:03 AM EDT on April 23, 2014 (GMT -0400)
Vidalia Municipal (KVDI) Elev 276 ft | 32.19 °N, 82.37 °W | Change Station
Active Advisory: Flood Warning

Current weather conditions updated 8 minutes ago

Clear
Clear
70 °F
Feels Like 70 °F
N
4
Wind Variable Wind from West
Sunrise 6:51 AM
Sunset 8:04 PM
Moon Waning Crescent

Today is forecast to be nearly the same temperature as yesterday.

Pressure 29.94 in
Visibility 10.0 miles
Clouds Clear
Dew Point 63 °F
Humidity 78%
Rainfall 0.00 in
Snow Depth Not available.
UV 8 out of 16
Pollen 8.20 out of 12
Air Quality Not available.
Flu Activity Sporadic
METAR KVDI 231455Z AUTO 27003KT 10SM CLR 21/17 A2994 RMK AO2

More Conditions Fewer Conditions

Pressure 29.94 in
Visibility 10.0 miles
Clouds Clear
Dew Point 63 °F
Humidity 78%
Rainfall 0.00 in
Snow Depth Not available.
UV 8 out of 16
Pollen 8.20 out of 12
Air Quality Not available.
Flu Activity Sporadic
METAR KVDI 231455Z AUTO 27003KT 10SM CLR 21/17 A2994 RMK AO2

More Conditions Fewer Conditions

10-Day Weather Forecast

Almanac

Astronomy

Apr. 23, 2014 Rise Set
Actual Time 6:51 AM EDT 8:04 PM EDT
Civil Twilight 6:26 AM EDT 8:30 PM EDT
Nautical Twilight 5:55 AM EDT 9:00 PM EDT
Astronomical Twilight 5:24 AM EDT 9:32 PM EDT
Moon 3:01 AM EDT 2:31 PM EDT
Length of Visible Light 14h 04m
Length of Day
13h 13m
Tomorrow will be 1m 48s longer.
Waning Crescent, 35% of the Moon is Illuminated
Today
Waning Crescent
Apr 29
New
May 6
First Quarter
May 14
Full
May 21
Last Quarter

Today's Extremes

State Highs State Lows

Community

  • spring flowers
    spring flowers
  • Earth Day Spectrum Ove' Blue
    Earth Day Spectrum Ove' Blue
  • BARN B&W
    BARN B&W
  • April Sunset
    April Sunset
  • Waiting..
    Waiting..

WunderPhotos

Upload Photos

1,704,303 photos uploaded!

Nearby

Snow Depth

Station Depth Elevation
No new snow has been reported.

Coastal Water Temperatures

Place Temperature
No Stations Reporting

Earthquake Activity

City Distance Mag. Time & Date
No recent earthquake activity has been reported nearby.
Minimum magnitude displayed is 2.5.

Nearby Weather Stations

Station Location Temp. Heat Index Dew Point Humidity Wind Precip. Elev Updated Type
South Treutlen Co., Soperton, GA 73.3 °F 72 °F 68 °F 85% North  at  0.0 mph 0.00 in / hr 236 ft 11:03 AM EDT Rapid Fire
Hope Street, Metter, GA 73.5 °F 76 °F 62 °F 67% NNW  at  5.8 mph 0.00 in / hr 211 ft 11:03 AM EDT Rapid Fire

Show More Stations Show Fewer Stations

What do you think?

We're not finished. Please let us know what you like, what you don't like, and what you are still missing.